createdAt,value
2023-03-05T00:00:40.047Z,74.1
2023-03-05T00:01:40.064Z,74.0
2023-03-05T00:02:40.317Z,74.1
2023-03-05T00:03:40.251Z,74.0
2023-03-05T00:04:40.077Z,74.0
2023-03-05T00:05:40.063Z,73.9
2023-03-05T00:06:40.076Z,74.1
2023-03-05T00:07:40.079Z,74.0
2023-03-05T00:08:40.085Z,74.0
2023-03-05T00:09:40.107Z,74.1
2023-03-05T00:10:40.103Z,74.2
2023-03-05T00:11:40.112Z,74.2
2023-03-05T00:12:40.110Z,74.4
2023-03-05T00:13:40.127Z,74.5
2023-03-05T00:14:40.117Z,74.5
2023-03-05T00:15:40.315Z,74.5
2023-03-05T00:16:40.171Z,74.5
2023-03-05T00:17:40.142Z,74.5
2023-03-05T00:18:40.152Z,74.4
2023-03-05T00:19:40.136Z,74.4
2023-03-05T00:20:40.154Z,74.3
2023-03-05T00:21:40.182Z,74.4
2023-03-05T00:22:40.172Z,74.3
2023-03-05T00:23:40.171Z,74.3
2023-03-05T00:24:40.184Z,74.3
2023-03-05T00:25:40.192Z,73.9
2023-03-05T00:26:40.222Z,73.5
2023-03-05T00:27:40.287Z,73.6
2023-03-05T00:28:40.206Z,73.0
2023-03-05T00:29:40.229Z,72.8
2023-03-05T00:30:40.227Z,72.6
2023-03-05T00:31:40.541Z,72.5
2023-03-05T00:32:40.445Z,72.4
2023-03-05T00:33:40.232Z,71.9
2023-03-05T00:34:40.242Z,72.2
2023-03-05T00:35:40.412Z,71.7
2023-03-05T00:36:40.271Z,71.8
2023-03-05T00:37:40.258Z,71.6
2023-03-05T00:38:40.261Z,71.5
2023-03-05T00:39:40.270Z,71.3
2023-03-05T00:40:40.484Z,71.4
2023-03-05T00:41:40.303Z,71.4
2023-03-05T00:42:40.297Z,71.0
2023-03-05T00:43:40.323Z,70.6
2023-03-05T00:44:40.322Z,70.8
2023-03-05T00:45:40.324Z,71.0
2023-03-05T00:46:40.807Z,71.0
2023-03-05T00:47:40.331Z,70.9
2023-03-05T00:48:40.326Z,71.0
2023-03-05T00:49:40.334Z,71.1
2023-03-05T00:50:40.355Z,70.9
2023-03-05T00:51:40.353Z,71.0
2023-03-05T00:52:40.391Z,70.9
2023-03-05T00:53:40.369Z,71.0
2023-03-05T00:54:40.379Z,71.0
2023-03-05T00:55:40.378Z,71.2
2023-03-05T00:56:40.385Z,71.3
2023-03-05T00:57:40.390Z,71.4
2023-03-05T00:58:40.429Z,71.5
2023-03-05T00:59:40.403Z,71.7
2023-03-05T01:00:40.413Z,71.8
2023-03-05T01:01:40.542Z,72.0
2023-03-05T01:02:40.421Z,72.3
2023-03-05T01:03:40.945Z,73.1
2023-03-05T01:04:40.436Z,73.3
2023-03-05T01:05:40.706Z,74.2
2023-03-05T01:06:40.434Z,74.7
2023-03-05T01:07:40.452Z,75.0
2023-03-05T01:08:40.445Z,75.5
2023-03-05T01:09:40.461Z,76.0
2023-03-05T01:10:40.469Z,76.6
2023-03-05T01:11:40.503Z,77.0
2023-03-05T01:12:40.482Z,77.2
2023-03-05T01:13:40.543Z,77.3
2023-03-05T01:14:40.495Z,77.4
2023-03-05T01:15:40.505Z,77.5
2023-03-05T01:16:40.503Z,77.6
2023-03-05T01:17:40.529Z,77.8
2023-03-05T01:35:41.011Z,83.6
2023-03-05T01:36:40.687Z,83.8
2023-03-05T01:37:40.711Z,83.9
2023-03-05T01:38:40.704Z,84.0
2023-03-05T01:39:40.698Z,83.9
2023-03-05T01:40:40.714Z,83.8
2023-03-05T01:41:40.706Z,83.9
2023-03-05T01:42:40.758Z,84.0
2023-03-05T01:43:40.745Z,84.1
2023-03-05T01:44:40.723Z,84.1
2023-03-05T01:45:40.841Z,84.1
2023-03-05T01:46:40.746Z,84.2
2023-03-05T01:47:40.791Z,84.2
2023-03-05T01:48:40.765Z,84.2
2023-03-05T01:49:40.770Z,84.3
2023-03-05T01:50:40.778Z,84.3
2023-03-05T01:51:40.772Z,84.4
2023-03-05T01:52:40.786Z,84.6
2023-03-05T01:53:40.799Z,84.7
2023-03-05T01:54:40.795Z,84.8
2023-03-05T01:55:40.805Z,84.9
2023-03-05T01:56:40.818Z,85.0
2023-03-05T01:57:40.830Z,85.3
2023-03-05T01:58:40.830Z,85.5
2023-03-05T01:59:40.833Z,85.4
2023-03-05T02:00:40.928Z,85.5
2023-03-05T02:01:40.842Z,85.5
2023-03-05T02:02:40.848Z,85.4
2023-03-05T02:03:40.959Z,85.1
2023-03-05T02:04:40.856Z,85.0
2023-03-05T02:05:40.860Z,84.9
2023-03-05T02:06:40.860Z,84.8
2023-03-05T02:07:40.984Z,85.0
2023-03-05T02:08:40.878Z,85.3
2023-03-05T02:09:40.885Z,85.4
2023-03-05T02:10:40.884Z,85.5
2023-03-05T02:11:40.908Z,85.7
2023-03-05T02:12:40.897Z,85.8
2023-03-05T02:13:40.931Z,85.9
2023-03-05T02:14:40.912Z,85.9
2023-03-05T02:15:40.921Z,86.0
2023-03-05T02:16:41.098Z,86.1
2023-03-05T02:17:40.966Z,86.3
2023-03-05T02:18:40.946Z,86.3
2023-03-05T02:19:40.950Z,86.4
2023-03-05T02:20:40.970Z,86.4
2023-03-05T02:21:40.960Z,86.4
2023-03-05T02:22:41.011Z,86.5
2023-03-05T02:23:41.008Z,86.7
2023-03-05T02:24:40.975Z,86.8
2023-03-05T02:25:41.019Z,86.9
2023-03-05T02:26:41.013Z,87.0
2023-03-05T02:27:41.009Z,87.3
2023-03-05T02:28:41.005Z,87.3
2023-03-05T02:29:41.047Z,87.7
2023-03-05T02:30:41.032Z,87.8
2023-03-05T02:31:41.177Z,87.9
2023-03-05T02:32:41.148Z,87.9
2023-03-05T02:33:41.076Z,88.1
2023-03-05T02:34:41.077Z,88.2
2023-03-05T02:35:41.277Z,88.3
2023-03-05T02:36:41.091Z,88.2
2023-03-05T02:37:41.085Z,88.2
2023-03-05T02:38:41.089Z,87.8
2023-03-05T02:39:41.107Z,87.5
2023-03-05T02:40:41.111Z,87.3
2023-03-05T02:41:41.115Z,87.2
2023-03-05T02:42:41.105Z,87.1
2023-03-05T02:43:41.136Z,87.1
2023-03-05T02:44:41.131Z,87.1
2023-03-05T02:45:41.299Z,87.1
2023-03-05T02:46:41.135Z,87.1
2023-03-05T02:47:41.154Z,86.9
2023-03-05T02:48:41.157Z,87.0
2023-03-05T02:49:41.147Z,87.4
2023-03-05T02:50:41.157Z,87.8
2023-03-05T02:51:41.155Z,87.8
2023-03-05T02:52:41.171Z,88.0
2023-03-05T02:53:41.173Z,88.2
2023-03-05T02:54:41.178Z,88.3
2023-03-05T02:55:41.191Z,88.5
2023-03-05T02:56:41.194Z,88.7
2023-03-05T02:57:41.216Z,88.7
2023-03-05T02:58:41.227Z,88.8
2023-03-05T02:59:41.423Z,89.0
2023-03-05T03:00:41.229Z,88.8
2023-03-05T03:01:41.367Z,88.8
2023-03-05T03:02:41.241Z,88.5
2023-03-05T03:03:41.261Z,88.5
2023-03-05T03:04:41.257Z,88.6
2023-03-05T03:05:41.296Z,88.4
2023-03-05T03:06:41.272Z,88.3
2023-03-05T03:07:41.278Z,88.1
2023-03-05T03:08:41.270Z,88.2
2023-03-05T03:09:41.282Z,88.3
2023-03-05T03:10:41.307Z,88.4
2023-03-05T03:11:41.305Z,88.7
2023-03-05T03:12:41.321Z,88.6
2023-03-05T03:13:41.313Z,88.5
2023-03-05T03:14:41.468Z,88.4
2023-03-05T03:15:41.327Z,88.4
2023-03-05T03:16:41.557Z,88.2
2023-03-05T03:17:41.332Z,88.1
2023-03-05T03:18:41.369Z,88.2
2023-03-05T03:19:41.342Z,88.2
2023-03-05T03:20:41.360Z,88.3
2023-03-05T03:21:41.378Z,88.4
2023-03-05T03:22:41.372Z,88.5
2023-03-05T03:23:41.380Z,88.3
2023-03-05T03:24:41.394Z,88.2
2023-03-05T03:25:41.388Z,88.3
2023-03-05T03:26:41.395Z,88.6
2023-03-05T03:27:41.453Z,88.7
2023-03-05T03:28:41.442Z,88.7
2023-03-05T03:29:41.428Z,88.7
2023-03-05T03:30:41.571Z,88.7
2023-03-05T03:31:41.456Z,88.8
2023-03-05T03:32:41.454Z,88.9
2023-03-05T03:33:41.451Z,88.8
2023-03-05T03:34:41.485Z,89.2
2023-03-05T03:35:41.643Z,89.7
2023-03-05T03:36:41.463Z,89.7
2023-03-05T03:37:41.468Z,89.6
2023-03-05T03:38:41.512Z,90.0
2023-03-05T03:39:41.504Z,90.2
2023-03-05T03:40:41.535Z,90.4
2023-03-05T03:41:41.514Z,90.6
2023-03-05T03:42:41.534Z,90.8
2023-03-05T03:43:41.527Z,91.1
2023-03-05T03:44:41.562Z,91.3
2023-03-05T03:45:41.560Z,91.4
2023-03-05T03:46:41.545Z,91.7
2023-03-05T03:47:41.562Z,91.7
2023-03-05T03:48:41.611Z,91.8
2023-03-05T03:49:41.584Z,92.0
2023-03-05T03:50:41.582Z,92.1
2023-03-05T03:51:41.624Z,92.2
2023-03-05T03:52:41.614Z,92.3
2023-03-05T03:53:41.603Z,92.4
2023-03-05T03:54:41.626Z,92.6
2023-03-05T03:55:41.614Z,92.8
2023-03-05T03:56:41.628Z,92.9
2023-03-05T03:57:41.637Z,93.0
2023-03-05T03:58:41.645Z,93.1
2023-03-05T03:59:41.640Z,93.2
2023-03-05T04:00:41.779Z,93.2
2023-03-05T04:01:41.684Z,93.2
2023-03-05T04:02:41.857Z,93.3
2023-03-05T04:03:41.672Z,93.3
2023-03-05T04:04:41.890Z,93.3
2023-03-05T04:05:41.681Z,93.4
2023-03-05T04:06:41.711Z,93.4
2023-03-05T04:07:41.699Z,93.3
2023-03-05T04:08:41.699Z,93.3
2023-03-05T04:09:41.713Z,93.1
2023-03-05T04:10:41.731Z,92.8
2023-03-05T04:11:41.737Z,92.8
2023-03-05T04:12:41.727Z,92.8
2023-03-05T04:13:41.739Z,92.8
2023-03-05T04:14:41.748Z,92.8
2023-03-05T04:15:41.868Z,93.0
2023-03-05T04:16:41.745Z,93.0
2023-03-05T04:17:41.764Z,92.9
2023-03-05T04:18:41.777Z,92.6
2023-03-05T04:19:41.789Z,92.4
2023-03-05T04:20:41.798Z,92.1
2023-03-05T04:21:41.820Z,92.0
2023-03-05T04:22:41.826Z,91.8
2023-03-05T04:23:41.814Z,91.8
2023-03-05T04:24:41.811Z,91.9
2023-03-05T04:25:41.829Z,91.9
2023-03-05T04:26:41.833Z,92.1
2023-03-05T04:27:41.845Z,92.1
2023-03-05T04:28:41.840Z,92.1
2023-03-05T04:29:41.847Z,92.1
2023-03-05T04:30:41.858Z,92.1
2023-03-05T04:31:41.852Z,92.2
2023-03-05T04:32:41.861Z,92.1
2023-03-05T04:33:41.888Z,92.1
2023-03-05T04:34:41.870Z,92.0
2023-03-05T04:35:42.045Z,92.1
2023-03-05T04:36:41.886Z,92.0
2023-03-05T04:37:41.902Z,92.1
2023-03-05T04:38:41.903Z,92.1
2023-03-05T04:39:41.910Z,92.2
2023-03-05T04:40:41.942Z,92.2
2023-03-05T04:41:41.922Z,92.1
2023-03-05T04:42:41.932Z,92.0
2023-03-05T04:43:41.975Z,92.0
2023-03-05T04:44:41.951Z,91.9
2023-03-05T04:45:41.958Z,91.9
2023-03-05T04:46:42.259Z,92.0
2023-03-05T04:47:41.961Z,91.9
2023-03-05T04:48:41.975Z,91.9
2023-03-05T04:49:41.975Z,91.7
2023-03-05T04:50:41.999Z,91.6
2023-03-05T04:51:41.983Z,91.7
2023-03-05T04:52:42.012Z,91.7
2023-03-05T04:53:42.002Z,91.3
2023-03-05T04:54:42.005Z,91.2
2023-03-05T04:55:42.020Z,91.4
2023-03-05T04:56:42.016Z,91.1
2023-03-05T04:57:42.032Z,91.2
2023-03-05T04:58:42.028Z,91.2
2023-03-05T04:59:42.045Z,91.1
2023-03-05T05:00:42.054Z,91.1
2023-03-05T05:01:42.199Z,91.0
2023-03-05T05:02:42.329Z,91.0
2023-03-05T05:03:42.118Z,90.9
2023-03-05T05:04:42.073Z,91.0
2023-03-05T05:05:42.097Z,90.9
2023-03-05T05:06:42.098Z,90.7
2023-03-05T05:07:42.104Z,90.8
2023-03-05T05:08:42.120Z,90.9
2023-03-05T05:09:42.107Z,90.8
2023-03-05T05:10:42.120Z,90.7
2023-03-05T05:11:42.127Z,90.7
2023-03-05T05:12:42.144Z,90.7
2023-03-05T05:13:42.142Z,90.8
2023-03-05T05:14:42.142Z,90.8
2023-03-05T05:15:42.205Z,90.6
2023-03-05T05:16:42.153Z,90.7
2023-03-05T05:17:42.172Z,90.8
2023-03-05T05:18:42.165Z,90.8
2023-03-05T05:19:42.376Z,90.8
2023-03-05T05:20:42.184Z,91.0
2023-03-05T05:21:42.186Z,91.1
2023-03-05T05:22:42.197Z,91.0
2023-03-05T05:23:42.222Z,91.0
2023-03-05T05:24:42.216Z,91.0
2023-03-05T05:25:42.230Z,91.0
2023-03-05T05:26:42.244Z,90.9
2023-03-05T05:27:42.242Z,91.0
2023-03-05T05:28:42.241Z,91.0
2023-03-05T05:29:42.492Z,91.0
2023-03-05T05:30:42.256Z,91.2
2023-03-05T05:31:42.429Z,91.3
2023-03-05T05:32:42.561Z,91.2
2023-03-05T05:33:42.303Z,91.2
2023-03-05T05:34:42.308Z,91.0
2023-03-05T05:35:42.439Z,91.0
2023-03-05T05:36:42.323Z,91.1
2023-03-05T05:37:42.341Z,90.9
2023-03-05T05:38:42.355Z,90.9
2023-03-05T05:39:42.355Z,90.9
2023-03-05T05:40:42.383Z,90.9
2023-03-05T05:41:42.383Z,90.8
2023-03-05T05:42:42.408Z,90.8
2023-03-05T05:43:42.398Z,90.8
2023-03-05T05:44:42.392Z,90.8
2023-03-05T05:45:42.906Z,90.6
2023-03-05T05:46:42.589Z,90.7
2023-03-05T05:47:42.416Z,90.8
2023-03-05T05:48:42.444Z,90.9
2023-03-05T05:49:42.475Z,90.9
2023-03-05T05:50:42.461Z,91.0
2023-03-05T05:51:42.470Z,91.1
2023-03-05T05:52:42.483Z,91.2
2023-03-05T05:53:42.486Z,91.3
2023-03-05T05:54:42.492Z,91.3
2023-03-05T05:55:42.486Z,91.4
2023-03-05T05:56:42.497Z,91.5
2023-03-05T05:57:42.514Z,91.5
2023-03-05T05:58:42.506Z,91.6
2023-03-05T05:59:42.529Z,91.7
2023-03-05T06:00:42.517Z,91.7
2023-03-05T06:01:42.658Z,91.7
2023-03-05T06:02:42.734Z,91.6
2023-03-05T06:03:42.551Z,91.6
2023-03-05T06:04:42.576Z,91.7
2023-03-05T06:05:42.571Z,91.6
2023-03-05T06:06:42.562Z,91.6
2023-03-05T06:07:42.577Z,91.4
2023-03-05T06:08:42.597Z,91.4
2023-03-05T06:09:42.591Z,91.2
2023-03-05T06:10:42.608Z,91.2
2023-03-05T06:11:42.615Z,91.1
2023-03-05T06:12:42.618Z,90.9
2023-03-05T06:13:42.643Z,91.0
2023-03-05T06:14:42.641Z,90.9
2023-03-05T06:15:42.637Z,90.3
2023-03-05T06:16:42.965Z,89.9
2023-03-05T06:17:42.648Z,89.9
2023-03-05T06:18:42.662Z,90.1
2023-03-05T06:19:42.778Z,90.5
2023-03-05T06:20:42.679Z,90.8
2023-03-05T06:21:42.678Z,90.9
2023-03-05T06:22:42.687Z,91.2
2023-03-05T06:23:42.691Z,91.4
2023-03-05T06:24:42.699Z,91.6
2023-03-05T06:25:42.708Z,91.7
2023-03-05T06:26:42.755Z,91.6
2023-03-05T06:27:42.733Z,91.7
2023-03-05T06:28:42.736Z,91.8
2023-03-05T06:29:42.741Z,91.9
2023-03-05T06:30:42.855Z,91.8
2023-03-05T06:31:42.746Z,91.3
2023-03-05T06:32:42.770Z,91.2
2023-03-05T06:33:42.804Z,91.3
2023-03-05T06:34:42.772Z,91.3
2023-03-05T06:35:42.985Z,91.3
2023-03-05T06:36:42.790Z,91.3
2023-03-05T06:37:42.827Z,91.5
2023-03-05T06:38:42.821Z,91.5
2023-03-05T06:39:42.818Z,91.5
2023-03-05T06:40:42.825Z,91.2
2023-03-05T06:41:42.843Z,91.0
2023-03-05T06:42:42.844Z,90.5
2023-03-05T06:43:42.853Z,90.6
2023-03-05T06:44:42.854Z,90.7
2023-03-05T06:45:43.284Z,90.7
2023-03-05T06:46:42.880Z,90.5
2023-03-05T06:47:42.975Z,90.5
2023-03-05T06:48:42.897Z,90.5
2023-03-05T06:49:42.913Z,90.2
2023-03-05T06:50:42.924Z,89.8
2023-03-05T06:51:42.921Z,89.8
2023-03-05T06:52:42.938Z,89.9
2023-03-05T06:53:42.958Z,89.7
2023-03-05T06:54:43.032Z,89.5
2023-03-05T06:55:42.957Z,89.7
2023-03-05T06:56:42.970Z,89.6
2023-03-05T06:57:42.984Z,89.7
2023-03-05T06:58:42.994Z,89.8
2023-03-05T06:59:42.985Z,89.9
2023-03-05T07:00:43.000Z,89.6
2023-03-05T07:01:42.995Z,89.2
2023-03-05T07:02:43.191Z,89.0
2023-03-05T07:03:43.055Z,89.2
2023-03-05T07:04:43.024Z,89.5
2023-03-05T07:05:43.039Z,89.7
2023-03-05T07:06:43.041Z,89.1
2023-03-05T07:07:43.045Z,89.3
2023-03-05T07:08:43.051Z,89.0
2023-03-05T07:09:43.064Z,89.1
2023-03-05T07:10:43.075Z,88.6
2023-03-05T07:11:43.103Z,88.4
2023-03-05T07:12:43.780Z,88.5
2023-03-05T07:13:43.095Z,88.7
2023-03-05T07:14:43.090Z,88.4
2023-03-05T07:15:43.300Z,88.2
2023-03-05T07:16:43.127Z,87.9
2023-03-05T07:17:43.126Z,88.0
2023-03-05T07:18:43.158Z,88.1
2023-03-05T07:19:43.141Z,88.1
2023-03-05T07:20:43.158Z,88.0
2023-03-05T07:21:43.145Z,88.0
2023-03-05T07:22:43.173Z,87.8
2023-03-05T07:23:43.166Z,88.1
2023-03-05T07:24:43.187Z,88.0
2023-03-05T07:25:43.197Z,88.2
2023-03-05T07:26:43.188Z,87.9
2023-03-05T07:27:43.192Z,87.9
2023-03-05T07:28:43.221Z,87.8
2023-03-05T07:29:43.202Z,87.1
2023-03-05T07:30:43.335Z,87.3
2023-03-05T07:31:43.226Z,86.6
2023-03-05T07:32:43.239Z,87.0
2023-03-05T07:33:43.283Z,86.9
2023-03-05T07:34:43.262Z,86.8
2023-03-05T07:35:43.424Z,86.6
2023-03-05T07:36:43.272Z,86.9
2023-03-05T07:37:43.279Z,86.0
2023-03-05T07:38:43.288Z,85.7
2023-03-05T07:39:47.448Z,85.3
2023-03-05T07:40:43.302Z,84.6
2023-03-05T07:41:43.324Z,84.7
2023-03-05T07:42:43.541Z,85.2
2023-03-05T07:43:43.333Z,85.4
2023-03-05T07:44:43.349Z,85.2
2023-03-05T07:45:43.337Z,85.4
2023-03-05T07:46:43.344Z,84.9
2023-03-05T07:47:43.370Z,85.0
2023-03-05T07:48:43.372Z,85.3
2023-03-05T07:49:43.373Z,85.1
2023-03-05T07:50:43.724Z,83.8
2023-03-05T07:51:43.408Z,83.1
2023-03-05T07:52:43.478Z,82.8
2023-03-05T07:53:43.394Z,82.4
2023-03-05T07:54:43.421Z,81.5
2023-03-05T07:55:43.438Z,81.9
2023-03-05T07:56:43.481Z,81.3
2023-03-05T07:57:43.523Z,81.5
2023-03-05T07:58:45.605Z,81.6
2023-03-05T07:59:43.470Z,81.9
2023-03-05T08:00:43.465Z,81.3
2023-03-05T08:01:43.514Z,81.9
2023-03-05T08:02:43.767Z,82.1
2023-03-05T08:03:43.770Z,81.6
2023-03-05T08:04:43.584Z,81.7
2023-03-05T08:05:43.542Z,82.0
2023-03-05T08:06:43.574Z,81.4
2023-03-05T08:07:43.545Z,81.6
2023-03-05T08:08:43.626Z,81.8
2023-03-05T08:09:43.601Z,81.6
2023-03-05T08:10:43.539Z,80.4
2023-03-05T08:11:43.609Z,80.1
2023-03-05T08:12:43.573Z,80.5
2023-03-05T08:13:43.597Z,79.7
2023-03-05T08:14:43.614Z,78.6
2023-03-05T08:15:43.765Z,78.7
2023-03-05T08:16:44.077Z,77.5
2023-03-05T08:17:43.610Z,76.0
2023-03-05T08:18:43.647Z,76.4
2023-03-05T08:19:43.633Z,76.6
2023-03-05T08:20:43.632Z,74.9
2023-03-05T08:21:43.643Z,73.3
2023-03-05T08:22:43.657Z,73.5
2023-03-05T08:23:43.654Z,74.1
2023-03-05T08:24:43.671Z,74.6
2023-03-05T08:25:43.668Z,73.7
2023-03-05T08:26:43.698Z,73.7
2023-03-05T08:27:43.696Z,73.0
2023-03-05T08:28:43.697Z,73.6
2023-03-05T08:29:43.731Z,74.1
2023-03-05T08:30:43.719Z,74.0
2023-03-05T08:31:43.806Z,72.8
2023-03-05T08:32:43.728Z,73.3
2023-03-05T08:33:43.762Z,74.0
2023-03-05T08:34:43.749Z,73.7
2023-03-05T08:35:43.856Z,73.9
2023-03-05T08:36:43.795Z,73.1
2023-03-05T08:37:43.785Z,73.7
2023-03-05T08:38:43.770Z,73.0
2023-03-05T08:39:43.787Z,73.6
2023-03-05T08:40:43.782Z,73.5
2023-03-05T08:41:43.800Z,73.5
2023-03-05T08:42:43.799Z,73.6
2023-03-05T08:43:43.801Z,73.3
2023-03-05T08:44:43.853Z,74.1
2023-03-05T08:45:43.823Z,74.0
2023-03-05T08:46:43.988Z,72.9
2023-03-05T08:47:43.832Z,72.4
2023-03-05T08:48:43.895Z,73.2
2023-03-05T08:49:43.858Z,71.1
2023-03-05T08:50:43.863Z,71.9
2023-03-05T08:51:43.874Z,72.3
2023-03-05T08:52:43.894Z,71.4
2023-03-05T08:53:43.885Z,71.9
2023-03-05T08:54:43.896Z,71.4
2023-03-05T08:55:44.435Z,71.1
2023-03-05T08:56:43.904Z,71.5
2023-03-05T08:57:43.938Z,71.6
2023-03-05T08:58:43.980Z,71.1
2023-03-05T08:59:43.939Z,69.8
2023-03-05T09:00:43.945Z,69.1
2023-03-05T09:01:44.181Z,69.1
2023-03-05T09:02:44.132Z,70.0
2023-03-05T09:03:43.976Z,70.1
2023-03-05T09:04:43.989Z,70.6
2023-03-05T09:05:43.992Z,70.7
2023-03-05T09:06:44.013Z,68.9
2023-03-05T09:07:44.010Z,70.1
2023-03-05T09:08:44.030Z,70.1
2023-03-05T09:09:44.025Z,70.4
2023-03-05T09:10:44.052Z,70.4
2023-03-05T09:11:44.094Z,71.6
2023-03-05T09:12:44.057Z,70.5
2023-03-05T09:13:44.075Z,70.3
2023-03-05T09:14:44.073Z,70.1
2023-03-05T09:15:44.074Z,70.8
2023-03-05T09:16:44.324Z,70.2
2023-03-05T09:17:44.093Z,70.0
2023-03-05T09:18:44.099Z,69.8
2023-03-05T09:19:44.119Z,69.4
2023-03-05T09:20:44.126Z,69.9
2023-03-05T09:21:44.132Z,70.0
2023-03-05T09:22:44.144Z,69.7
2023-03-05T09:23:44.151Z,67.6
2023-03-05T09:24:44.168Z,68.0
2023-03-05T09:25:44.167Z,66.6
2023-03-05T09:26:44.193Z,66.7
2023-03-05T09:27:44.183Z,66.9
2023-03-05T09:28:44.187Z,65.7
2023-03-05T09:29:44.209Z,66.3
2023-03-05T09:30:44.239Z,65.6
2023-03-05T09:31:44.565Z,66.3
2023-03-05T09:32:44.363Z,66.2
2023-03-05T09:33:44.239Z,66.3
2023-03-05T09:34:44.233Z,66.4
2023-03-05T09:35:44.425Z,64.3
2023-03-05T09:36:44.244Z,63.6
2023-03-05T09:37:44.266Z,63.1
2023-03-05T09:38:44.273Z,62.8
2023-03-05T09:39:44.284Z,63.9
2023-03-05T09:40:44.275Z,63.2
2023-03-05T09:41:44.295Z,61.5
2023-03-05T09:42:44.290Z,60.9
2023-03-05T09:43:44.320Z,59.7
2023-03-05T09:44:44.330Z,61.0
2023-03-05T09:45:44.475Z,60.9
2023-03-05T09:46:44.327Z,60.9
2023-03-05T09:47:44.345Z,61.2
2023-03-05T09:48:44.380Z,61.1
2023-03-05T09:49:44.364Z,60.7
2023-03-05T09:50:44.376Z,61.3
2023-03-05T09:51:44.383Z,60.2
2023-03-05T09:52:44.426Z,59.5
2023-03-05T09:53:44.418Z,59.3
2023-03-05T09:54:44.415Z,59.2
2023-03-05T09:55:44.411Z,58.9
2023-03-05T09:56:44.444Z,59.7
2023-03-05T09:57:44.444Z,58.8
2023-03-05T09:58:44.448Z,58.6
2023-03-05T09:59:44.463Z,58.7
2023-03-05T10:00:44.460Z,58.3
2023-03-05T10:01:44.468Z,58.3
2023-03-05T10:02:44.633Z,59.0
2023-03-05T10:03:44.725Z,58.4
2023-03-05T10:04:44.503Z,58.4
2023-03-05T10:05:44.573Z,59.2
2023-03-05T10:06:44.519Z,59.8
2023-03-05T10:07:44.563Z,60.4
2023-03-05T10:08:44.584Z,59.8
2023-03-05T10:09:44.588Z,60.1
2023-03-05T10:10:44.568Z,60.3
2023-03-05T10:11:44.590Z,60.1
2023-03-05T10:12:44.629Z,59.6
2023-03-05T10:13:44.614Z,59.8
2023-03-05T10:14:44.646Z,60.6
2023-03-05T10:15:44.611Z,62.1
2023-03-05T10:16:44.763Z,63.2
2023-03-05T10:17:44.660Z,64.5
2023-03-05T10:18:44.634Z,65.1
2023-03-05T10:19:44.650Z,66.2
2023-03-05T10:20:44.677Z,66.3
2023-03-05T10:21:44.662Z,66.3
2023-03-05T10:22:44.655Z,66.4
2023-03-05T10:23:44.665Z,66.7
2023-03-05T10:24:44.693Z,66.8
2023-03-05T10:25:44.701Z,67.4
2023-03-05T10:26:44.678Z,68.0
2023-03-05T10:27:44.710Z,68.4
2023-03-05T10:28:44.681Z,68.9
2023-03-05T10:29:44.698Z,69.4
2023-03-05T10:30:44.721Z,69.5
2023-03-05T10:31:44.961Z,69.8
2023-03-05T10:32:45.042Z,70.2
2023-03-05T10:33:44.743Z,71.0
2023-03-05T10:34:44.759Z,70.4
2023-03-05T10:35:44.960Z,71.0
2023-03-05T10:36:44.814Z,70.4
2023-03-05T10:37:44.789Z,70.0
2023-03-05T10:38:44.815Z,70.0
2023-03-05T10:39:44.838Z,69.7
2023-03-05T10:40:44.810Z,69.0
2023-03-05T10:41:44.819Z,69.3
2023-03-05T10:42:44.833Z,68.5
2023-03-05T10:43:44.841Z,68.8
2023-03-05T10:44:44.825Z,68.6
2023-03-05T10:45:44.997Z,68.8
2023-03-05T10:46:44.843Z,68.1
2023-03-05T10:47:44.854Z,67.5
2023-03-05T10:48:44.859Z,67.8
2023-03-05T10:49:44.899Z,67.7
2023-03-05T10:50:44.874Z,67.5
2023-03-05T10:51:44.894Z,66.9
2023-03-05T10:52:44.902Z,67.7
2023-03-05T10:53:44.923Z,67.1
2023-03-05T10:54:44.922Z,65.9
2023-03-05T10:55:44.940Z,66.3
2023-03-05T10:56:44.943Z,66.1
2023-03-05T10:57:44.969Z,66.2
2023-03-05T10:58:44.968Z,65.6
2023-03-05T10:59:44.975Z,65.2
2023-03-05T11:00:45.005Z,65.3
2023-03-05T11:01:45.172Z,65.4
2023-03-05T11:02:45.102Z,65.3
2023-03-05T11:03:45.014Z,64.9
2023-03-05T11:04:45.015Z,64.7
2023-03-05T11:05:45.034Z,64.8
2023-03-05T11:06:45.037Z,65.0
2023-03-05T11:07:45.037Z,64.9
2023-03-05T11:08:45.056Z,65.2
2023-03-05T11:09:45.050Z,65.0
2023-03-05T11:10:45.067Z,64.9
2023-03-05T11:11:45.080Z,65.1
2023-03-05T11:12:45.128Z,64.0
2023-03-05T11:13:45.100Z,62.1
2023-03-05T11:14:45.113Z,62.3
2023-03-05T11:15:45.204Z,63.4
2023-03-05T11:16:45.116Z,63.4
2023-03-05T11:17:45.136Z,62.9
2023-03-05T11:18:45.139Z,63.1
2023-03-05T11:19:45.142Z,62.9
2023-03-05T11:20:45.156Z,63.2
2023-03-05T11:21:45.185Z,63.4
2023-03-05T11:22:45.209Z,63.2
2023-03-05T11:23:45.194Z,63.2
2023-03-05T11:24:45.199Z,63.6
2023-03-05T11:25:45.282Z,64.0
2023-03-05T11:26:45.229Z,64.5
2023-03-05T11:27:45.437Z,65.1
2023-03-05T11:28:45.238Z,65.4
2023-03-05T11:29:45.240Z,70.1
2023-03-05T11:30:45.400Z,73.9
2023-03-05T11:31:45.249Z,77.0
2023-03-05T11:32:45.258Z,79.7
2023-03-05T11:33:45.275Z,81.8
2023-03-05T11:34:45.278Z,83.2
2023-03-05T11:35:45.435Z,84.6
2023-03-05T11:36:45.291Z,85.7
2023-03-05T11:37:45.307Z,86.7
2023-03-05T11:38:45.305Z,87.6
2023-03-05T11:39:45.330Z,88.4
2023-03-05T11:40:45.332Z,88.8
2023-03-05T11:41:45.341Z,89.3
2023-03-05T11:42:45.355Z,89.6
2023-03-05T11:43:45.355Z,89.9
2023-03-05T11:44:45.365Z,89.9
2023-03-05T11:45:45.395Z,89.9
2023-03-05T11:46:45.381Z,89.7
2023-03-05T11:47:45.411Z,89.8
2023-03-05T11:48:45.397Z,89.7
2023-03-05T11:49:45.423Z,90.0
2023-03-05T11:50:45.420Z,90.4
2023-03-05T11:51:45.447Z,90.4
2023-03-05T11:52:45.475Z,90.3
2023-03-05T11:53:45.459Z,90.5
2023-03-05T11:54:45.488Z,90.6
2023-03-05T11:55:45.483Z,90.6
2023-03-05T11:56:45.484Z,90.7
2023-03-05T11:57:45.505Z,90.8
2023-03-05T11:58:45.526Z,91.0
2023-03-05T11:59:45.552Z,91.0
2023-03-05T12:00:45.543Z,91.1
2023-03-05T12:01:45.543Z,91.3
2023-03-05T12:02:45.878Z,91.1
2023-03-05T12:03:45.757Z,91.3
2023-03-05T12:04:45.598Z,91.1
2023-03-05T12:05:45.612Z,90.9
2023-03-05T12:06:46.022Z,90.6
2023-03-05T12:07:45.616Z,89.9
2023-03-05T12:08:45.612Z,88.7
2023-03-05T12:09:45.830Z,88.5
2023-03-05T12:10:45.637Z,88.1
2023-03-05T12:11:45.642Z,86.8
2023-03-05T12:12:45.670Z,86.7
2023-03-05T12:13:45.665Z,86.6
2023-03-05T12:14:46.284Z,87.2
2023-03-05T12:15:45.973Z,87.1
2023-03-05T12:16:45.707Z,86.5
2023-03-05T12:17:45.706Z,85.9
2023-03-05T12:18:45.704Z,86.7
2023-03-05T12:19:45.727Z,87.8
2023-03-05T12:20:46.635Z,88.1
2023-03-05T12:21:45.835Z,88.1
2023-03-05T12:22:45.740Z,86.8
2023-03-05T12:23:45.754Z,85.2
2023-03-05T12:24:45.765Z,82.1
2023-03-05T12:25:45.778Z,81.5
2023-03-05T12:26:45.790Z,82.4
2023-03-05T12:27:46.140Z,81.7
2023-03-05T12:28:45.828Z,82.3
2023-03-05T12:29:45.850Z,81.6
2023-03-05T12:30:46.096Z,82.3
2023-03-05T12:31:46.092Z,82.0
2023-03-05T12:32:46.720Z,78.3
2023-03-05T12:33:45.830Z,77.6
2023-03-05T12:34:45.852Z,76.8
2023-03-05T12:35:49.711Z,78.0
2023-03-05T12:36:46.565Z,77.4
2023-03-05T12:37:45.891Z,77.3
2023-03-05T12:38:46.499Z,77.3
2023-03-05T12:39:46.270Z,75.8
2023-03-05T12:40:45.925Z,75.0
2023-03-05T12:41:45.942Z,77.8
2023-03-05T12:42:45.948Z,77.5
2023-03-05T12:43:45.974Z,76.6
2023-03-05T12:44:45.965Z,76.8
2023-03-05T12:45:45.967Z,76.2
2023-03-05T12:46:46.211Z,75.1
2023-03-05T12:47:45.992Z,75.0
2023-03-05T12:48:46.236Z,76.2
2023-03-05T12:49:46.060Z,75.7
2023-03-05T12:50:46.016Z,76.4
2023-03-05T12:51:46.027Z,75.9
2023-03-05T12:52:46.054Z,77.3
2023-03-05T12:53:46.059Z,78.9
2023-03-05T12:54:46.125Z,79.8
2023-03-05T12:55:46.167Z,81.2
2023-03-05T12:56:46.101Z,81.4
2023-03-05T12:57:46.091Z,82.5
2023-03-05T12:58:46.102Z,82.9
2023-03-05T12:59:46.109Z,83.9
2023-03-05T13:00:46.319Z,84.5
2023-03-05T13:01:46.192Z,85.3
2023-03-05T13:02:46.163Z,86.3
2023-03-05T13:03:46.281Z,86.4
2023-03-05T13:04:46.153Z,86.6
2023-03-05T13:05:46.152Z,85.7
2023-03-05T13:06:46.178Z,84.6
2023-03-05T13:07:46.168Z,85.1
2023-03-05T13:08:46.168Z,83.8
2023-03-05T13:09:46.187Z,83.9
2023-03-05T13:10:46.180Z,84.8
2023-03-05T13:11:46.344Z,83.9
2023-03-05T13:12:46.205Z,84.2
2023-03-05T13:13:46.209Z,83.2
2023-03-05T13:14:46.226Z,83.2
2023-03-05T13:15:46.234Z,84.1
2023-03-05T13:16:46.505Z,84.3
2023-03-05T13:17:46.267Z,83.9
2023-03-05T13:18:46.277Z,83.5
2023-03-05T13:19:46.280Z,83.4
2023-03-05T13:20:46.289Z,83.8
2023-03-05T13:21:46.297Z,84.2
2023-03-05T13:22:46.317Z,84.7
2023-03-05T13:23:46.316Z,85.1
2023-03-05T13:24:46.319Z,85.2
2023-03-05T13:25:46.324Z,85.0
2023-03-05T13:26:46.346Z,84.1
2023-03-05T13:27:46.349Z,83.8
2023-03-05T13:28:46.365Z,84.3
2023-03-05T13:29:46.366Z,84.1
2023-03-05T13:30:46.386Z,84.7
2023-03-05T13:31:46.690Z,82.5
2023-03-05T13:32:46.399Z,82.2
2023-03-05T13:33:46.407Z,82.3
2023-03-05T13:34:48.332Z,81.9
2023-03-05T13:35:46.573Z,80.8